CheckWX is a tool to help pilots better visualize weather data.  It is not intended as a substitute for an official pre-flight weather briefing.

23:15:47 UTC

KMUO METAR
Mountain Home AFB Airport
Mountain Home, Idaho, USA
Current

1 hour ago

KMUO 222158Z AUTO 33004KT 10SM CLR 08/M04 A3022 RMK AO2 SLP254 T00831036 $
Observed
Nov-22 @ 21:58 UTC
Wind
  • 330° at 4 KTS
Visibility
10 SM
Flight Rules
VFR
Cloud Levels
  • Clear skies
Temperature
C / 46°F
Dewpoint
-4°C / 25°F
Humidity
43%
Altimeter
30.22" Hg
Pressure
1023.42 hPa
Previous

2 hours ago

KMUO 222058Z AUTO 24003KT 10SM CLR 08/M02 A3022 RMK AO2 SLP254 T00791024 56009 $
Observed
Nov-22 @ 20:58 UTC
Wind
  • 240° at 3 KTS
Visibility
10 SM
Flight Rules
VFR
Cloud Levels
  • Clear skies
Temperature
C / 46°F
Dewpoint
-2°C / 28°F
Humidity
50%
Altimeter
30.22" Hg
Pressure
1023.42 hPa
Previous

5 hours ago

KMUO 221758Z AUTO 10006KT 10SM CLR 03/M01 A3025 RMK AO2 SLP269 T00311015 10031 21079 51010 $
Observed
Nov-22 @ 17:58 UTC
Wind
  • 100° at 6 KTS
Visibility
10 SM
Flight Rules
VFR
Cloud Levels
  • Clear skies
Temperature
C / 37°F
Dewpoint
-2°C / 28°F
Humidity
70%
Altimeter
30.25" Hg
Pressure
1024.42 hPa